createdAt,value
2019-05-09T00:00:16.333Z,0
2019-05-09T00:01:18.483Z,0
2019-05-09T00:02:20.734Z,0
2019-05-09T00:03:25.801Z,0
2019-05-09T00:04:28.030Z,0
2019-05-09T00:05:30.193Z,0
2019-05-09T00:06:35.051Z,0
2019-05-09T00:07:37.215Z,0
2019-05-09T00:08:39.381Z,0
2019-05-09T00:09:43.866Z,0
2019-05-09T00:10:46.302Z,0
2019-05-09T00:11:48.863Z,0
2019-05-09T00:12:51.024Z,0
2019-05-09T00:13:55.548Z,0
2019-05-09T00:14:57.993Z,0
2019-05-09T00:16:00.167Z,0
2019-05-09T00:17:03.653Z,0
2019-05-09T00:18:06.263Z,0
2019-05-09T00:19:08.492Z,0
2019-05-09T00:20:10.974Z,0
2019-05-09T00:21:15.987Z,0
2019-05-09T00:22:18.883Z,0
2019-05-09T00:23:21.068Z,0
2019-05-09T00:24:26.082Z,0
2019-05-09T00:25:28.247Z,0
2019-05-09T00:26:30.429Z,0
2019-05-09T00:27:33.196Z,0
2019-05-09T00:28:36.128Z,0
2019-05-09T00:29:38.408Z,0
2019-05-09T00:30:40.592Z,0
2019-05-09T00:31:44.984Z,0
2019-05-09T00:32:47.619Z,0
2019-05-09T00:33:49.782Z,0
2019-05-09T00:34:53.217Z,0
2019-05-09T00:35:55.524Z,0
2019-05-09T00:36:57.969Z,0
2019-05-09T00:38:00.204Z,0
2019-05-09T00:39:04.062Z,0
2019-05-09T00:40:06.820Z,0
2019-05-09T00:41:08.991Z,0
2019-05-09T00:42:13.438Z,0
2019-05-09T00:43:16.194Z,0
2019-05-09T00:44:18.348Z,0
2019-05-09T00:45:20.604Z,0
2019-05-09T00:46:25.186Z,0
2019-05-09T00:47:28.067Z,0
2019-05-09T00:48:30.235Z,0
2019-05-09T00:49:35.256Z,0
2019-05-09T00:50:37.484Z,0
2019-05-09T00:51:39.611Z,0
2019-05-09T00:52:43.026Z,0
2019-05-09T00:53:45.282Z,0
2019-05-09T00:54:47.464Z,0
2019-05-09T00:55:49.715Z,0
2019-05-09T00:56:54.142Z,0
2019-05-09T00:57:56.384Z,0
2019-05-09T00:58:58.499Z,0
2019-05-09T01:00:01.080Z,0
2019-05-09T01:01:05.693Z,0
2019-05-09T01:02:07.876Z,0
2019-05-09T01:03:10.039Z,0
2019-05-09T01:04:13.570Z,0
2019-05-09T01:05:16.235Z,0
2019-05-09T01:06:18.407Z,0
2019-05-09T01:07:20.617Z,0
2019-05-09T01:08:24.930Z,0
2019-05-09T01:09:27.164Z,0
2019-05-09T01:10:29.377Z,0
2019-05-09T01:11:33.269Z,0
2019-05-09T01:12:35.644Z,0
2019-05-09T01:13:37.833Z,0
2019-05-09T01:14:40.280Z,0
2019-05-09T01:15:44.725Z,0
2019-05-09T01:16:46.903Z,0
2019-05-09T01:17:49.110Z,0
2019-05-09T01:18:51.586Z,0
2019-05-09T01:19:56.577Z,0
2019-05-09T01:20:58.732Z,0
2019-05-09T01:22:00.899Z,0
2019-05-09T01:23:05.586Z,0
2019-05-09T01:24:08.152Z,0
2019-05-09T01:25:10.405Z,0
2019-05-09T01:26:15.185Z,0
2019-05-09T01:27:17.401Z,0
2019-05-09T01:28:19.576Z,0
2019-05-09T01:29:23.024Z,0
2019-05-09T01:30:25.708Z,0
2019-05-09T01:31:27.895Z,0
2019-05-09T01:32:30.125Z,0
2019-05-09T01:33:33.248Z,0
2019-05-09T01:34:35.830Z,0
2019-05-09T01:35:38.060Z,0
2019-05-09T01:36:40.226Z,0
2019-05-09T01:37:44.749Z,0
2019-05-09T01:38:46.910Z,0
2019-05-09T01:39:49.083Z,0
2019-05-09T01:40:53.229Z,0
2019-05-09T01:41:55.507Z,0
2019-05-09T01:42:58.465Z,0
2019-05-09T01:44:00.625Z,0
2019-05-09T01:45:05.475Z,0
2019-05-09T01:46:07.642Z,0
2019-05-09T01:47:10.216Z,0
2019-05-09T01:48:13.936Z,0
2019-05-09T01:49:16.247Z,0
2019-05-09T01:50:18.811Z,0
2019-05-09T01:51:23.295Z,0
2019-05-09T01:52:25.703Z,0
2019-05-09T01:53:27.889Z,0
2019-05-09T01:54:30.051Z,0
2019-05-09T01:55:34.598Z,0
2019-05-09T01:56:36.774Z,0
2019-05-09T01:57:39.278Z,0
2019-05-09T01:58:43.061Z,0
2019-05-09T01:59:45.377Z,0
2019-05-09T02:00:47.922Z,0
2019-05-09T02:01:50.093Z,0
2019-05-09T02:02:53.992Z,0
2019-05-09T02:03:56.593Z,0
2019-05-09T02:04:58.846Z,0
2019-05-09T02:06:03.121Z,0
2019-05-09T02:07:06.440Z,0
2019-05-09T02:08:08.704Z,0
2019-05-09T02:09:10.867Z,0
2019-05-09T02:10:15.600Z,0
2019-05-09T02:11:17.758Z,0
2019-05-09T02:12:20.005Z,0
2019-05-09T02:13:23.095Z,0
2019-05-09T02:14:25.799Z,0
2019-05-09T02:15:28.046Z,0
2019-05-09T02:16:30.198Z,0
2019-05-09T02:17:33.445Z,0
2019-05-09T02:18:36.374Z,0
2019-05-09T02:19:38.507Z,0
2019-05-09T02:20:40.725Z,0
2019-05-09T02:21:45.622Z,0
2019-05-09T02:22:48.236Z,0
2019-05-09T02:23:50.783Z,0
2019-05-09T02:24:55.655Z,0
2019-05-09T02:25:57.875Z,0
2019-05-09T02:27:00.045Z,0
2019-05-09T02:28:03.459Z,0
2019-05-09T02:29:05.745Z,0
2019-05-09T02:30:07.981Z,0
2019-05-09T02:31:11.149Z,0
2019-05-09T02:32:18.623Z,0
2019-05-09T02:33:20.789Z,0
2019-05-09T02:34:26.500Z,0
2019-05-09T02:35:32.848Z,0
2019-05-09T02:37:04.104Z,0
2019-05-09T02:38:09.270Z,0
2019-05-09T02:39:12.141Z,0
2019-05-09T02:40:18.461Z,0
2019-05-09T02:41:21.320Z,0
2019-05-09T02:42:24.403Z,0
2019-05-09T02:43:30.105Z,0
2019-05-09T02:44:32.350Z,0
2019-05-09T02:45:34.962Z,0
2019-05-09T02:46:40.575Z,0
2019-05-09T02:47:42.840Z,0
2019-05-09T02:48:45.411Z,0
2019-05-09T02:49:51.994Z,0
2019-05-09T02:50:54.932Z,0
2019-05-09T02:52:01.050Z,4
2019-05-09T02:53:03.983Z,4
2019-05-09T02:54:10.204Z,4
2019-05-09T02:55:12.912Z,0
2019-05-09T02:56:18.390Z,4
2019-05-09T02:57:21.530Z,4
2019-05-09T02:58:23.789Z,8
2019-05-09T02:59:29.929Z,8
2019-05-09T03:00:32.621Z,8
2019-05-09T03:01:34.813Z,12
2019-05-09T03:02:40.990Z,12
2019-05-09T03:03:43.277Z,16
2019-05-09T03:04:48.658Z,16
2019-05-09T03:05:51.598Z,20
2019-05-09T03:06:54.056Z,24
2019-05-09T03:07:58.300Z,24
2019-05-09T03:09:00.712Z,32
2019-05-09T03:10:04.198Z,36
2019-05-09T03:11:09.579Z,44
2019-05-09T03:12:25.885Z,44
2019-05-09T03:13:41.631Z,52
2019-05-09T03:14:44.105Z,56
2019-05-09T03:15:49.202Z,60
2019-05-09T03:16:52.533Z,60
2019-05-09T03:17:55.067Z,68
2019-05-09T03:19:01.386Z,76
2019-05-09T03:20:03.871Z,84
2019-05-09T03:21:08.862Z,96
2019-05-09T03:22:12.230Z,108
2019-05-09T03:23:14.815Z,120
2019-05-09T03:24:20.873Z,132
2019-05-09T03:25:23.134Z,148
2019-05-09T03:26:25.310Z,160
2019-05-09T03:27:31.176Z,172
2019-05-09T03:28:33.403Z,188
2019-05-09T03:29:35.880Z,200
2019-05-09T03:30:42.149Z,216
2019-05-09T03:31:45.013Z,232
2019-05-09T03:32:51.999Z,248
2019-05-09T03:33:55.173Z,264
2019-05-09T03:35:02.032Z,284
2019-05-09T03:36:04.217Z,308
2019-05-09T03:37:08.433Z,336
2019-05-09T03:38:11.065Z,368
2019-05-09T03:39:13.534Z,400
2019-05-09T03:40:17.859Z,428
2019-05-09T03:41:20.280Z,460
2019-05-09T03:42:30.600Z,488
2019-05-09T03:43:47.955Z,520
2019-05-09T03:44:51.023Z,552
2019-05-09T03:45:53.664Z,584
2019-05-09T03:46:57.991Z,620
2019-05-09T03:48:00.342Z,656
2019-05-09T03:49:02.684Z,704
2019-05-09T03:50:04.862Z,756
2019-05-09T03:51:09.861Z,816
2019-05-09T03:52:12.307Z,880
2019-05-09T03:53:14.754Z,948
2019-05-09T03:54:18.318Z,996
2019-05-09T03:55:20.653Z,996
2019-05-09T03:56:23.205Z,992
2019-05-09T03:57:25.375Z,976
2019-05-09T03:58:29.819Z,956
2019-05-09T03:59:32.310Z,940
2019-05-09T04:00:34.764Z,932
2019-05-09T04:01:39.299Z,904
2019-05-09T04:02:42.784Z,872
2019-05-09T04:03:44.948Z,836
2019-05-09T04:04:49.890Z,800
2019-05-09T04:05:58.581Z,800
2019-05-09T04:07:05.025Z,844
2019-05-09T04:08:10.135Z,816
2019-05-09T04:09:12.350Z,732
2019-05-09T04:10:14.528Z,708
2019-05-09T04:11:19.460Z,708
2019-05-09T04:12:21.641Z,720
2019-05-09T04:13:24.094Z,744
2019-05-09T04:14:28.162Z,756
2019-05-09T04:15:30.492Z,788
2019-05-09T04:16:32.719Z,888
2019-05-09T04:17:34.871Z,1016
2019-05-09T04:18:40.228Z,1136
2019-05-09T04:19:42.985Z,1176
2019-05-09T04:20:45.137Z,1164
2019-05-09T04:21:50.136Z,1132
2019-05-09T04:22:52.311Z,1080
2019-05-09T04:23:54.523Z,1012
2019-05-09T04:24:57.630Z,1028
2019-05-09T04:25:59.903Z,1200
2019-05-09T04:27:02.138Z,1512
2019-05-09T04:28:04.299Z,1868
2019-05-09T04:29:08.848Z,2284
2019-05-09T04:30:11.008Z,2688
2019-05-09T04:31:13.239Z,3024
2019-05-09T04:32:15.414Z,3332
2019-05-09T04:33:20.322Z,3568
2019-05-09T04:34:22.576Z,3840
2019-05-09T04:35:24.743Z,4156
2019-05-09T04:36:29.389Z,4508
2019-05-09T04:37:31.546Z,4832
2019-05-09T04:38:33.739Z,5084
2019-05-09T04:39:38.605Z,5340
2019-05-09T04:40:44.666Z,5552
2019-05-09T04:41:54.910Z,5704
2019-05-09T04:43:15.467Z,5928
2019-05-09T04:44:41.125Z,6180
2019-05-09T04:45:43.310Z,6248
2019-05-09T04:46:47.839Z,5932
2019-05-09T04:47:50.507Z,5356
2019-05-09T04:48:53.980Z,4932
2019-05-09T04:50:04.383Z,4668
2019-05-09T04:51:09.631Z,4748
2019-05-09T04:52:11.893Z,4948
2019-05-09T04:53:14.335Z,5136
2019-05-09T04:54:17.717Z,5368
2019-05-09T04:55:20.275Z,5600
2019-05-09T04:56:22.506Z,5692
2019-05-09T04:57:24.677Z,5692
2019-05-09T04:58:29.187Z,5832
2019-05-09T04:59:31.406Z,5864
2019-05-09T05:00:33.586Z,5784
2019-05-09T05:01:38.626Z,5552
2019-05-09T05:02:41.381Z,5320
2019-05-09T05:03:43.533Z,5180
2019-05-09T05:04:47.326Z,5128
2019-05-09T05:05:50.373Z,5160
2019-05-09T05:06:52.604Z,5312
2019-05-09T05:07:54.805Z,5604
2019-05-09T05:08:59.637Z,6068
2019-05-09T05:10:01.826Z,6264
2019-05-09T05:11:07.199Z,6240
2019-05-09T05:12:09.655Z,6300
2019-05-09T05:13:23.016Z,6060
2019-05-09T05:14:31.662Z,5844
2019-05-09T05:15:34.130Z,5656
2019-05-09T05:16:39.143Z,5480
2019-05-09T05:17:42.155Z,5228
2019-05-09T05:18:44.321Z,5148
2019-05-09T05:19:48.871Z,4832
2019-05-09T05:20:51.030Z,4880
2019-05-09T05:21:53.270Z,5520
2019-05-09T05:22:57.827Z,5136
2019-05-09T05:24:00.372Z,5076
2019-05-09T05:25:02.822Z,5036
2019-05-09T05:26:05.953Z,4876
2019-05-09T05:27:10.740Z,5256
2019-05-09T05:28:13.208Z,5688
2019-05-09T05:29:17.133Z,6088
2019-05-09T05:30:19.922Z,6060
2019-05-09T05:31:22.091Z,6048
2019-05-09T05:32:24.551Z,6012
2019-05-09T05:33:29.332Z,5568
2019-05-09T05:34:31.974Z,5020
2019-05-09T05:35:34.146Z,4612
2019-05-09T05:36:39.227Z,4516
2019-05-09T05:37:41.461Z,4556
2019-05-09T05:38:43.649Z,4684
2019-05-09T05:39:47.726Z,4880
2019-05-09T05:40:50.038Z,5284
2019-05-09T05:41:52.529Z,5684
2019-05-09T05:42:55.075Z,5892
2019-05-09T05:44:00.570Z,6280
2019-05-09T05:45:02.732Z,6548
2019-05-09T05:46:04.935Z,6776
2019-05-09T05:47:09.581Z,7316
2019-05-09T05:48:11.754Z,8028
2019-05-09T05:49:14.227Z,8304
2019-05-09T05:50:17.614Z,8684
2019-05-09T05:51:20.235Z,8964
2019-05-09T05:52:22.470Z,9064
2019-05-09T05:53:24.648Z,8704
2019-05-09T05:54:29.587Z,8348
2019-05-09T05:55:31.772Z,8032
2019-05-09T05:56:33.949Z,7740
2019-05-09T05:57:38.506Z,7596
2019-05-09T05:58:40.862Z,7516
2019-05-09T05:59:43.082Z,7340
2019-05-09T06:00:45.268Z,6956
2019-05-09T06:01:49.793Z,6740
2019-05-09T06:02:52.023Z,6748
2019-05-09T06:03:54.200Z,7040
2019-05-09T06:04:57.855Z,7596
2019-05-09T06:06:00.134Z,8136
2019-05-09T06:07:02.402Z,8496
2019-05-09T06:08:04.850Z,8136
2019-05-09T06:09:09.735Z,8508
2019-05-09T06:10:11.953Z,9400
2019-05-09T06:11:14.122Z,9900
2019-05-09T06:12:19.341Z,10180
2019-05-09T06:13:21.459Z,10432
2019-05-09T06:14:23.615Z,10924
2019-05-09T06:15:25.810Z,11272
2019-05-09T06:16:30.775Z,10756
2019-05-09T06:17:33.018Z,9840
2019-05-09T06:18:35.192Z,8660
2019-05-09T06:19:40.538Z,8036
2019-05-09T06:20:45.550Z,7300
2019-05-09T06:21:52.274Z,6648
2019-05-09T06:22:54.597Z,7144
2019-05-09T06:23:59.181Z,7860
2019-05-09T06:25:02.045Z,8812
2019-05-09T06:26:09.188Z,9464
2019-05-09T06:27:12.851Z,11164
2019-05-09T06:28:15.424Z,12824
2019-05-09T06:29:20.270Z,12380
2019-05-09T06:30:22.443Z,12032
2019-05-09T06:31:24.627Z,12556
2019-05-09T06:32:27.894Z,14500
2019-05-09T06:33:31.156Z,13256
2019-05-09T06:34:33.697Z,11892
2019-05-09T06:35:37.884Z,9720
2019-05-09T06:36:40.157Z,9692
2019-05-09T06:37:42.359Z,10004
2019-05-09T06:38:44.607Z,10412
2019-05-09T06:39:49.477Z,9980
2019-05-09T06:40:51.708Z,10980
2019-05-09T06:41:53.939Z,11108
2019-05-09T06:42:59.926Z,10780
2019-05-09T06:44:12.848Z,9416
2019-05-09T06:45:22.973Z,10360
2019-05-09T06:46:27.449Z,10752
2019-05-09T06:47:30.297Z,9532
2019-05-09T06:48:32.429Z,10476
2019-05-09T06:49:34.909Z,10556
2019-05-09T06:50:39.329Z,14816
2019-05-09T06:51:41.891Z,16324
2019-05-09T06:52:44.122Z,14164
2019-05-09T06:53:48.632Z,13520
2019-05-09T06:54:51.463Z,16212
2019-05-09T06:55:53.629Z,14092
2019-05-09T06:56:58.203Z,14764
2019-05-09T06:58:01.325Z,14924
2019-05-09T06:59:03.905Z,13212
2019-05-09T07:00:08.204Z,14316
2019-05-09T07:01:10.511Z,11156
2019-05-09T07:02:12.683Z,11116
2019-05-09T07:03:14.934Z,10376
2019-05-09T07:04:19.831Z,12804
2019-05-09T07:05:22.099Z,14540
2019-05-09T07:06:24.280Z,12528
2019-05-09T07:07:29.439Z,11592
2019-05-09T07:08:31.621Z,11224
2019-05-09T07:09:33.817Z,7808
2019-05-09T07:10:37.712Z,9224
2019-05-09T07:11:39.995Z,10016
2019-05-09T07:12:42.235Z,8908
2019-05-09T07:13:44.395Z,10284
2019-05-09T07:14:48.978Z,11156
2019-05-09T07:15:51.498Z,10656
2019-05-09T07:16:53.672Z,12132
2019-05-09T07:17:57.485Z,15284
2019-05-09T07:19:00.232Z,13944
2019-05-09T07:20:02.787Z,14516
2019-05-09T07:21:05.041Z,13792
2019-05-09T07:22:10.180Z,17080
2019-05-09T07:23:12.369Z,14888
2019-05-09T07:24:14.624Z,12772
2019-05-09T07:25:19.863Z,13840
2019-05-09T07:26:22.113Z,12236
2019-05-09T07:27:24.272Z,13724
2019-05-09T07:28:28.216Z,15404
2019-05-09T07:29:30.502Z,13248
2019-05-09T07:30:32.688Z,15024
2019-05-09T07:31:37.620Z,15212
2019-05-09T07:32:40.381Z,17132
2019-05-09T07:33:42.851Z,16196
2019-05-09T07:34:47.238Z,14668
2019-05-09T07:35:49.636Z,14740
2019-05-09T07:36:51.876Z,14792
2019-05-09T07:37:54.067Z,16632
2019-05-09T07:38:59.099Z,17408
2019-05-09T07:40:01.231Z,19136
2019-05-09T07:41:03.571Z,20096
2019-05-09T07:42:07.641Z,20288
2019-05-09T07:43:10.309Z,20288
2019-05-09T07:44:12.568Z,21952
2019-05-09T07:45:14.772Z,22144
2019-05-09T07:46:19.705Z,22432
2019-05-09T07:47:21.903Z,20608
2019-05-09T07:48:24.053Z,19904
2019-05-09T07:49:28.325Z,20320
2019-05-09T07:50:30.610Z,22624
2019-05-09T07:51:32.865Z,22944
2019-05-09T07:52:35.042Z,22272
2019-05-09T07:53:37.968Z,24640
2019-05-09T07:54:40.654Z,23712
2019-05-09T07:55:42.940Z,22208
2019-05-09T07:56:45.207Z,21472
2019-05-09T07:57:55.226Z,19328
2019-05-09T07:59:01.550Z,20928
2019-05-09T08:00:03.723Z,23648
2019-05-09T08:01:08.183Z,24640
2019-05-09T08:02:11.162Z,25824
2019-05-09T08:03:13.711Z,26848
2019-05-09T08:04:18.214Z,26912
2019-05-09T08:05:20.831Z,28032
2019-05-09T08:06:23.178Z,29120
2019-05-09T08:07:28.201Z,29408
2019-05-09T08:08:31.586Z,30880
2019-05-09T08:09:34.149Z,31200
2019-05-09T08:10:38.324Z,31040
2019-05-09T08:11:40.710Z,31424
2019-05-09T08:12:42.886Z,31840
2019-05-09T08:13:45.407Z,32896
2019-05-09T08:15:07.121Z,31680
2019-05-09T08:16:22.229Z,31264
2019-05-09T08:17:25.093Z,32640
2019-05-09T08:18:30.838Z,34336
2019-05-09T08:19:33.031Z,31552
2019-05-09T08:20:35.206Z,32224
2019-05-09T08:21:42.318Z,33088
2019-05-09T08:22:52.086Z,32416
2019-05-09T08:24:04.925Z,31680
2019-05-09T08:25:09.998Z,31424
2019-05-09T08:26:12.256Z,32512
2019-05-09T08:27:17.233Z,30176
2019-05-09T08:28:20.252Z,35808
2019-05-09T08:29:22.476Z,34272
2019-05-09T08:30:24.928Z,32192
2019-05-09T08:31:45.310Z,31328
2019-05-09T08:32:50.896Z,30240
2019-05-09T08:33:53.391Z,29056
2019-05-09T08:34:57.590Z,29600
2019-05-09T08:36:00.025Z,27392
2019-05-09T08:37:02.207Z,28448
2019-05-09T08:38:04.403Z,30464
2019-05-09T08:39:08.070Z,31776
2019-05-09T08:40:11.324Z,36480
2019-05-09T08:41:13.526Z,36672
2019-05-09T08:42:20.218Z,42848
2019-05-09T08:43:22.759Z,47840
2019-05-09T08:44:24.933Z,33248
2019-05-09T08:45:31.971Z,35648
2019-05-09T08:46:34.246Z,33632
2019-05-09T08:47:38.876Z,34560
2019-05-09T08:48:41.125Z,33600
2019-05-09T08:49:46.357Z,34432
2019-05-09T08:50:51.627Z,44640
2019-05-09T08:52:08.909Z,36448
2019-05-09T08:53:21.930Z,25952
2019-05-09T08:54:24.104Z,28480
2019-05-09T08:55:28.717Z,30144
2019-05-09T08:56:30.984Z,33024
2019-05-09T08:57:33.149Z,34656
2019-05-09T08:58:35.339Z,30304
2019-05-09T08:59:40.598Z,31200
2019-05-09T09:00:42.933Z,30080
2019-05-09T09:02:07.686Z,31936
2019-05-09T09:03:24.220Z,35552
2019-05-09T09:04:29.388Z,36032
2019-05-09T09:05:32.002Z,36544
2019-05-09T09:06:34.263Z,37280
2019-05-09T09:07:37.888Z,37120
2019-05-09T09:08:40.745Z,37376
2019-05-09T09:09:42.953Z,35904
2019-05-09T09:10:45.190Z,34688
2019-05-09T09:11:50.514Z,34688
2019-05-09T09:12:52.694Z,34560
2019-05-09T09:13:54.944Z,34240
2019-05-09T09:14:59.667Z,33152
2019-05-09T09:16:14.106Z,34624
2019-05-09T09:17:25.649Z,39360
2019-05-09T09:18:30.723Z,45248
2019-05-09T09:19:33.196Z,42912
2019-05-09T09:20:37.688Z,39136
2019-05-09T09:21:40.361Z,35072
2019-05-09T09:22:42.561Z,32064
2019-05-09T09:23:47.871Z,31424
2019-05-09T09:24:52.985Z,29088
2019-05-09T09:25:58.080Z,26944
2019-05-09T09:27:00.537Z,29056
2019-05-09T09:28:02.744Z,32512
2019-05-09T09:29:05.306Z,32864
2019-05-09T09:30:20.101Z,31552
2019-05-09T09:31:31.553Z,41984
2019-05-09T09:32:33.726Z,41632
2019-05-09T09:33:37.605Z,47616
2019-05-09T09:34:40.215Z,61280
2019-05-09T09:35:42.425Z,50336
2019-05-09T09:36:44.653Z,121408
2019-05-09T09:37:52.119Z,120832
2019-05-09T09:38:54.945Z,82016
2019-05-09T09:40:00.021Z,54496
2019-05-09T09:41:02.696Z,44352
2019-05-09T09:42:05.141Z,38336
2019-05-09T09:43:11.083Z,53312
2019-05-09T09:44:13.317Z,58112
2019-05-09T09:45:18.072Z,77984
2019-05-09T09:46:20.846Z,62048
2019-05-09T09:47:23.548Z,61376
2019-05-09T09:48:28.245Z,124512
2019-05-09T09:49:30.666Z,107520
2019-05-09T09:50:33.365Z,111136
2019-05-09T09:51:37.936Z,50400
2019-05-09T09:52:40.493Z,126112
2019-05-09T09:53:42.789Z,48928
2019-05-09T09:54:47.750Z,83552
2019-05-09T09:55:50.763Z,60384
2019-05-09T09:56:53.290Z,60032
2019-05-09T09:57:57.677Z,75680
2019-05-09T09:59:00.185Z,81728
2019-05-09T10:00:02.366Z,33248
2019-05-09T10:01:04.969Z,32128
2019-05-09T10:02:10.455Z,34880
2019-05-09T10:03:13.100Z,38272
2019-05-09T10:04:23.076Z,34368
2019-05-09T10:05:27.772Z,33696
2019-05-09T10:06:30.098Z,35136
2019-05-09T10:07:32.285Z,41984
2019-05-09T10:08:34.753Z,45920
2019-05-09T10:09:41.671Z,50464
2019-05-09T10:10:43.895Z,47136
2019-05-09T10:11:48.264Z,44736
2019-05-09T10:12:50.575Z,42528
2019-05-09T10:13:53.278Z,39744
2019-05-09T10:14:57.599Z,39200
2019-05-09T10:15:59.919Z,34720
2019-05-09T10:17:02.560Z,34624
2019-05-09T10:18:07.458Z,30496
2019-05-09T10:19:10.128Z,29280
2019-05-09T10:20:12.333Z,29856
2019-05-09T10:21:14.805Z,30944
2019-05-09T10:22:23.252Z,31424
2019-05-09T10:23:29.733Z,31040
2019-05-09T10:24:31.961Z,30464
2019-05-09T10:25:34.148Z,28864
2019-05-09T10:26:38.803Z,29664
2019-05-09T10:27:41.223Z,31520
2019-05-09T10:28:45.339Z,33536
2019-05-09T10:29:50.808Z,35424
2019-05-09T10:30:52.974Z,36320
2019-05-09T10:31:57.781Z,37088
2019-05-09T10:33:00.320Z,40768
2019-05-09T10:34:02.892Z,40640
2019-05-09T10:35:05.073Z,40896
2019-05-09T10:36:10.151Z,42880
2019-05-09T10:37:12.436Z,42784
2019-05-09T10:38:14.675Z,39520
2019-05-09T10:39:20.046Z,37088
2019-05-09T10:40:22.710Z,34400
2019-05-09T10:41:25.580Z,31808
2019-05-09T10:42:28.579Z,31232
2019-05-09T10:43:37.694Z,31872
2019-05-09T10:44:41.199Z,33088
2019-05-09T10:45:43.404Z,34144
2019-05-09T10:46:56.664Z,36736
2019-05-09T10:48:04.420Z,43296
2019-05-09T10:49:08.232Z,46144
2019-05-09T10:50:11.091Z,43968
2019-05-09T10:51:13.566Z,44480
2019-05-09T10:52:17.974Z,49664
2019-05-09T10:53:20.700Z,49024
2019-05-09T10:54:22.957Z,53344
2019-05-09T10:55:25.148Z,89248
2019-05-09T10:56:30.252Z,68416
2019-05-09T10:57:32.806Z,57760
2019-05-09T10:58:37.384Z,57280
2019-05-09T10:59:40.046Z,53920
2019-05-09T11:00:42.263Z,59392
2019-05-09T11:01:44.509Z,86016
2019-05-09T11:02:51.070Z,93728
2019-05-09T11:03:53.663Z,100512
2019-05-09T11:04:57.572Z,99936
2019-05-09T11:06:00.201Z,103520
2019-05-09T11:07:02.824Z,107072
2019-05-09T11:08:08.103Z,108928
2019-05-09T11:09:10.532Z,112512
2019-05-09T11:10:24.399Z,113792
2019-05-09T11:11:34.795Z,112864
2019-05-09T11:12:37.209Z,117152
2019-05-09T11:13:39.408Z,113184
2019-05-09T11:14:41.928Z,75808
2019-05-09T11:15:44.464Z,22144
2019-05-09T11:16:54.362Z,20736
2019-05-09T11:18:23.528Z,22176
2019-05-09T11:19:25.710Z,25440
2019-05-09T11:20:30.738Z,83456
2019-05-09T11:21:33.001Z,114304
2019-05-09T11:22:35.210Z,106336
2019-05-09T11:23:40.657Z,113792
2019-05-09T11:24:47.866Z,92992
2019-05-09T11:25:53.906Z,30720
2019-05-09T11:26:58.592Z,32640
2019-05-09T11:28:10.342Z,81984
2019-05-09T11:29:19.742Z,41920
2019-05-09T11:30:21.932Z,33920
2019-05-09T11:31:24.110Z,114336
2019-05-09T11:32:27.649Z,105248
2019-05-09T11:33:30.546Z,106304
2019-05-09T11:34:32.809Z,70272
2019-05-09T11:35:37.699Z,88640
2019-05-09T11:36:40.345Z,58400
2019-05-09T11:37:42.814Z,69152
2019-05-09T11:38:45.303Z,57952
2019-05-09T11:39:51.645Z,73696
2019-05-09T11:40:53.834Z,55424
2019-05-09T11:41:58.454Z,33088
2019-05-09T11:43:01.592Z,25376
2019-05-09T11:44:03.832Z,22400
2019-05-09T11:45:09.529Z,21408
2019-05-09T11:46:11.702Z,20288
2019-05-09T11:47:28.366Z,21664
2019-05-09T11:48:48.794Z,22880
2019-05-09T11:49:51.395Z,22528
2019-05-09T11:50:53.619Z,23200
2019-05-09T11:51:57.626Z,25792
2019-05-09T11:53:00.361Z,30080
2019-05-09T11:54:02.583Z,34496
2019-05-09T11:55:07.620Z,38944
2019-05-09T11:56:45.164Z,94944
2019-05-09T11:57:49.872Z,72736
2019-05-09T11:58:52.166Z,110368
2019-05-09T11:59:54.350Z,86080
2019-05-09T12:01:02.359Z,102592
2019-05-09T12:02:08.599Z,33280
2019-05-09T12:03:11.072Z,29376
2019-05-09T12:04:13.710Z,26432
2019-05-09T12:05:19.152Z,27872
2019-05-09T12:06:21.822Z,30432
2019-05-09T12:07:24.036Z,30912
2019-05-09T12:08:26.207Z,32000
2019-05-09T12:09:28.927Z,35872
2019-05-09T12:10:31.922Z,33088
2019-05-09T12:11:34.173Z,34016
2019-05-09T12:12:41.220Z,32768
2019-05-09T12:13:43.474Z,26880
2019-05-09T12:14:48.141Z,24192
2019-05-09T12:15:50.552Z,22144
2019-05-09T12:16:52.855Z,21536
2019-05-09T12:17:59.048Z,20512
2019-05-09T12:19:13.843Z,22048
2019-05-09T12:20:19.084Z,25536
2019-05-09T12:21:21.323Z,75200
2019-05-09T12:22:23.971Z,116128
2019-05-09T12:23:29.382Z,87296
2019-05-09T12:24:31.918Z,116320
2019-05-09T12:25:34.119Z,105120
2019-05-09T12:26:38.653Z,33504
2019-05-09T12:27:41.376Z,34944
2019-05-09T12:28:43.910Z,41728
2019-05-09T12:29:49.244Z,56672
2019-05-09T12:30:51.472Z,36320
2019-05-09T12:31:54.280Z,84384
2019-05-09T12:32:58.817Z,97344
2019-05-09T12:34:01.307Z,87680
2019-05-09T12:35:04.235Z,81152
2019-05-09T12:36:09.169Z,94560
2019-05-09T12:37:11.641Z,50976
2019-05-09T12:38:13.816Z,46912
2019-05-09T12:39:18.724Z,43872
2019-05-09T12:40:21.394Z,51712
2019-05-09T12:41:23.618Z,99136
2019-05-09T12:42:28.771Z,48448
2019-05-09T12:43:31.798Z,47520
2019-05-09T12:44:33.982Z,57472
2019-05-09T12:45:38.723Z,105792
2019-05-09T12:46:41.157Z,66880
2019-05-09T12:47:43.342Z,32736
2019-05-09T12:48:47.914Z,27616
2019-05-09T12:49:50.642Z,24576
2019-05-09T12:50:53.095Z,21728
2019-05-09T12:51:57.587Z,20032
2019-05-09T12:53:01.102Z,18624
2019-05-09T12:54:03.335Z,16872
2019-05-09T12:55:08.134Z,16492
2019-05-09T12:56:14.541Z,17728
2019-05-09T12:57:19.114Z,19840
2019-05-09T12:58:22.091Z,21760
2019-05-09T12:59:24.323Z,23680
2019-05-09T13:00:28.411Z,25440
2019-05-09T13:01:30.729Z,26272
2019-05-09T13:02:32.944Z,26016
2019-05-09T13:03:35.128Z,27616
2019-05-09T13:04:40.892Z,32928
2019-05-09T13:05:43.091Z,68960
2019-05-09T13:06:49.173Z,89408
2019-05-09T13:07:51.410Z,31264
2019-05-09T13:08:53.656Z,29472
2019-05-09T13:09:58.028Z,28576
2019-05-09T13:11:02.516Z,29216
2019-05-09T13:12:04.869Z,44768
2019-05-09T13:13:09.805Z,40672
2019-05-09T13:14:11.984Z,77952
2019-05-09T13:15:14.582Z,101600
2019-05-09T13:16:20.249Z,107296
2019-05-09T13:17:22.480Z,102624
2019-05-09T13:18:25.435Z,105792
2019-05-09T13:19:32.266Z,108064
2019-05-09T13:20:35.110Z,89184
2019-05-09T13:21:39.925Z,90240
2019-05-09T13:22:42.094Z,52512
2019-05-09T13:23:44.364Z,85376
2019-05-09T13:24:54.243Z,41088
2019-05-09T13:25:58.537Z,90784
2019-05-09T13:27:00.885Z,93088
2019-05-09T13:28:04.798Z,38688
2019-05-09T13:29:09.864Z,97280
2019-05-09T13:30:12.446Z,96832
2019-05-09T13:31:14.693Z,94464
2019-05-09T13:32:20.181Z,92896
2019-05-09T13:33:23.331Z,91616
2019-05-09T13:34:28.170Z,92352
2019-05-09T13:35:30.610Z,93568
2019-05-09T13:36:32.818Z,91968
2019-05-09T13:37:38.192Z,91680
2019-05-09T13:38:55.435Z,88736
2019-05-09T13:40:11.800Z,29376
2019-05-09T13:41:14.645Z,24352
2019-05-09T13:42:20.058Z,23712
2019-05-09T13:43:22.280Z,23584
2019-05-09T13:44:24.859Z,23328
2019-05-09T13:45:29.843Z,22752
2019-05-09T13:46:32.059Z,20960
2019-05-09T13:47:34.262Z,17928
2019-05-09T13:48:56.956Z,15248
2019-05-09T13:50:20.202Z,12760
2019-05-09T13:51:22.685Z,12968
2019-05-09T13:52:27.193Z,15240
2019-05-09T13:53:29.939Z,14720
2019-05-09T13:54:32.129Z,12952
2019-05-09T13:55:34.310Z,12032
2019-05-09T13:56:36.510Z,11468
2019-05-09T13:57:39.263Z,10888
2019-05-09T13:58:41.518Z,10384
2019-05-09T13:59:43.723Z,10144
2019-05-09T14:00:56.574Z,10544
2019-05-09T14:02:04.703Z,11272
2019-05-09T14:03:08.063Z,11824
2019-05-09T14:04:10.572Z,12428
2019-05-09T14:05:13.460Z,14080
2019-05-09T14:06:16.186Z,22176
2019-05-09T14:07:19.381Z,20288
2019-05-09T14:08:21.718Z,54720
2019-05-09T14:09:24.316Z,26976
2019-05-09T14:10:30.681Z,31744
2019-05-09T14:11:33.214Z,52480
2019-05-09T14:12:37.826Z,60512
2019-05-09T14:13:40.492Z,74208
2019-05-09T14:14:42.959Z,81280
2019-05-09T14:15:45.483Z,48160
2019-05-09T14:16:50.890Z,32160